createdAt,value
2017-12-10T00:00:48.285Z,11.50
2017-12-10T00:03:27.451Z,16.15
2017-12-10T00:06:02.974Z,10.27
2017-12-10T00:08:37.805Z,13.45
2017-12-10T00:11:11.433Z,19.50
2017-12-10T00:13:48.785Z,15.68
2017-12-10T00:16:24.150Z,11.82
2017-12-10T00:18:56.765Z,10.60
2017-12-10T00:21:35.233Z,30.37
2017-12-10T00:24:13.725Z,13.68
2017-12-10T00:26:55.724Z,15.57
2017-12-10T00:29:38.642Z,11.27
2017-12-10T00:32:16.215Z,10.55
2017-12-10T00:34:56.913Z,12.63
2017-12-10T00:37:41.274Z,11.45
2017-12-10T00:40:20.797Z,13.57
2017-12-10T00:42:59.971Z,11.20
2017-12-10T00:45:35.745Z,12.68
2017-12-10T00:48:16.802Z,12.30
2017-12-10T00:50:55.604Z,11.60
2017-12-10T00:53:37.399Z,15.80
2017-12-10T00:56:06.941Z,9.73
2017-12-10T00:58:48.109Z,16.55
2017-12-10T01:01:30.116Z,11.23
2017-12-10T01:04:11.056Z,11.02
2017-12-10T01:06:48.600Z,14.05
2017-12-10T01:09:28.759Z,12.25
2017-12-10T01:12:08.016Z,12.45
2017-12-10T01:14:49.827Z,12.63
2017-12-10T01:17:29.838Z,15.05
2017-12-10T01:20:08.922Z,18.50
2017-12-10T01:22:41.934Z,17.98
2017-12-10T01:25:19.460Z,17.33
2017-12-10T01:28:01.084Z,15.38
2017-12-10T01:30:45.749Z,12.98
2017-12-10T01:33:26.332Z,13.43
2017-12-10T01:36:10.132Z,21.02
2017-12-10T01:38:54.174Z,14.07
2017-12-10T01:41:35.507Z,13.27
2017-12-10T01:44:13.518Z,12.63
2017-12-10T01:46:52.468Z,13.98
2017-12-10T01:49:31.603Z,17.02
2017-12-10T01:52:04.984Z,16.00
2017-12-10T01:54:44.865Z,14.50
2017-12-10T01:57:24.160Z,16.75
2017-12-10T02:00:01.282Z,13.55
2017-12-10T02:02:39.439Z,11.90
2017-12-10T02:05:17.263Z,14.18
2017-12-10T02:07:56.619Z,13.15
2017-12-10T02:10:35.308Z,11.45
2017-12-10T02:13:16.378Z,10.77
2017-12-10T02:15:51.096Z,15.73
2017-12-10T02:18:26.289Z,14.68
2017-12-10T02:21:02.985Z,15.98
2017-12-10T02:23:37.151Z,12.32
2017-12-10T02:26:16.028Z,20.05
2017-12-10T02:28:55.010Z,16.00
2017-12-10T02:31:34.711Z,18.62
2017-12-10T02:34:09.382Z,17.62
2017-12-10T02:36:46.271Z,12.77
2017-12-10T02:39:28.890Z,19.33
2017-12-10T02:42:10.189Z,13.65
2017-12-10T02:44:51.233Z,19.50
2017-12-10T02:47:31.386Z,15.80
2017-12-10T02:50:09.221Z,16.52
2017-12-10T02:52:48.428Z,16.20
2017-12-10T02:55:25.124Z,11.80
2017-12-10T02:58:02.822Z,14.07
2017-12-10T03:00:43.800Z,14.32
2017-12-10T03:03:23.224Z,15.50
2017-12-10T03:06:01.305Z,14.23
2017-12-10T03:08:39.515Z,19.75
2017-12-10T03:11:20.071Z,13.50
2017-12-10T03:13:58.123Z,20.65
2017-12-10T03:16:37.225Z,16.55
2017-12-10T03:19:21.114Z,10.10
2017-12-10T03:22:02.131Z,13.55
2017-12-10T03:24:41.800Z,16.45
2017-12-10T03:27:16.303Z,13.68
2017-12-10T03:29:53.608Z,23.15
2017-12-10T03:32:31.222Z,12.07
2017-12-10T03:35:09.614Z,16.83
2017-12-10T03:37:48.690Z,14.05
2017-12-10T03:40:27.073Z,17.50
2017-12-10T03:43:07.968Z,16.50
2017-12-10T03:45:46.969Z,16.20
2017-12-10T03:48:25.353Z,11.48
2017-12-10T03:51:05.449Z,9.75
2017-12-10T03:53:48.594Z,12.35
2017-12-10T03:56:31.388Z,15.60
2017-12-10T03:59:11.901Z,10.73
2017-12-10T04:01:51.549Z,9.88
2017-12-10T04:04:29.806Z,16.17
2017-12-10T04:07:07.390Z,11.35
2017-12-10T04:09:46.665Z,9.90
2017-12-10T04:12:26.049Z,16.83
2017-12-10T04:15:04.498Z,15.88
2017-12-10T04:17:43.651Z,18.48
2017-12-10T04:20:23.345Z,17.87
2017-12-10T04:23:00.359Z,12.10
2017-12-10T04:25:40.570Z,10.93
2017-12-10T04:28:19.259Z,12.10
2017-12-10T04:30:59.164Z,9.88
2017-12-10T04:33:36.748Z,8.20
2017-12-10T04:36:14.266Z,8.93
2017-12-10T04:38:51.905Z,10.80
2017-12-10T04:41:30.479Z,8.95
2017-12-10T04:44:09.778Z,17.60
2017-12-10T04:46:47.455Z,17.23
2017-12-10T04:49:24.928Z,16.45
2017-12-10T04:52:04.045Z,10.30
2017-12-10T04:54:43.017Z,10.32
2017-12-10T04:57:19.976Z,12.37
2017-12-10T05:00:00.142Z,10.57
2017-12-10T05:02:38.062Z,8.45
2017-12-10T05:05:16.218Z,7.70
2017-12-10T05:07:50.738Z,7.72
2017-12-10T05:10:25.330Z,9.25
2017-12-10T05:13:04.639Z,16.00
2017-12-10T05:15:46.950Z,9.60
2017-12-10T05:18:26.562Z,10.57
2017-12-10T05:21:03.592Z,8.27
2017-12-10T05:23:41.294Z,8.35
2017-12-10T05:26:19.777Z,12.20
2017-12-10T05:28:59.867Z,8.48
2017-12-10T05:31:39.095Z,8.57
2017-12-10T05:34:17.491Z,8.13
2017-12-10T05:36:54.926Z,8.27
2017-12-10T05:39:34.484Z,15.00
2017-12-10T05:42:13.385Z,10.25
2017-12-10T05:44:53.644Z,8.35
2017-12-10T05:47:28.405Z,13.57
2017-12-10T05:50:08.126Z,6.60
2017-12-10T05:52:45.623Z,12.43
2017-12-10T05:55:24.104Z,14.32
2017-12-10T05:57:57.281Z,6.93
2017-12-10T06:00:34.856Z,8.32
2017-12-10T06:03:18.952Z,6.87
2017-12-10T06:05:58.368Z,5.95
2017-12-10T06:08:32.388Z,10.15
2017-12-10T06:11:11.677Z,11.00
2017-12-10T06:13:51.115Z,6.68
2017-12-10T06:16:34.496Z,8.73
2017-12-10T06:19:14.253Z,6.60
2017-12-10T06:21:54.215Z,11.65
2017-12-10T06:24:32.882Z,11.27
2017-12-10T06:27:10.919Z,9.98
2017-12-10T06:29:50.309Z,9.68
2017-12-10T06:32:28.309Z,8.82
2017-12-10T06:35:05.966Z,14.70
2017-12-10T06:37:48.163Z,7.32
2017-12-10T06:40:31.301Z,12.27
2017-12-10T06:43:14.686Z,10.32
2017-12-10T06:45:57.680Z,14.38
2017-12-10T06:48:37.948Z,16.92
2017-12-10T06:51:19.600Z,8.68
2017-12-10T06:53:57.109Z,7.97
2017-12-10T06:56:34.425Z,15.98
2017-12-10T06:59:09.174Z,10.07
2017-12-10T07:01:48.596Z,6.93
2017-12-10T07:04:25.706Z,10.15
2017-12-10T07:07:05.651Z,10.77
2017-12-10T07:09:44.606Z,7.70
2017-12-10T07:12:23.212Z,9.40
2017-12-10T07:14:57.513Z,8.52
2017-12-10T07:17:32.030Z,9.23
2017-12-10T07:20:07.366Z,7.53
2017-12-10T07:22:48.194Z,9.93
2017-12-10T07:25:25.769Z,11.25
2017-12-10T07:28:04.923Z,14.70
2017-12-10T07:30:45.461Z,7.37
2017-12-10T07:33:21.797Z,11.70
2017-12-10T07:35:57.594Z,8.18
2017-12-10T07:38:31.868Z,7.10
2017-12-10T07:41:13.982Z,9.25
2017-12-10T07:43:47.682Z,8.55
2017-12-10T07:46:26.733Z,6.65
2017-12-10T07:49:08.092Z,7.32
2017-12-10T07:51:50.871Z,5.87
2017-12-10T07:54:25.019Z,7.20
2017-12-10T07:57:05.220Z,8.23
2017-12-10T07:59:45.944Z,8.30
2017-12-10T08:02:20.456Z,7.35
2017-12-10T08:04:54.390Z,9.65
2017-12-10T08:07:33.882Z,11.70
2017-12-10T08:10:12.721Z,6.35
2017-12-10T08:12:56.444Z,6.28
2017-12-10T08:15:29.625Z,6.72
2017-12-10T08:18:09.438Z,7.40
2017-12-10T08:20:49.791Z,7.57
2017-12-10T08:23:24.991Z,9.40
2017-12-10T08:25:59.184Z,6.22
2017-12-10T08:28:41.227Z,7.30
2017-12-10T08:31:20.124Z,9.70
2017-12-10T08:34:00.781Z,6.60
2017-12-10T08:36:40.891Z,11.15
2017-12-10T08:39:22.321Z,8.55
2017-12-10T08:42:04.229Z,8.88
2017-12-10T08:44:47.460Z,8.55
2017-12-10T08:47:25.853Z,9.23
2017-12-10T08:50:05.276Z,7.43
2017-12-10T08:52:46.530Z,7.55
2017-12-10T08:55:26.672Z,20.33
2017-12-10T08:58:07.280Z,8.32
2017-12-10T09:00:47.713Z,8.80
2017-12-10T09:03:29.783Z,8.10
2017-12-10T09:06:10.166Z,9.15
2017-12-10T09:08:44.889Z,7.78
2017-12-10T09:11:24.135Z,10.43
2017-12-10T09:14:01.981Z,6.18
2017-12-10T09:16:37.891Z,8.20
2017-12-10T09:19:12.420Z,7.53
2017-12-10T09:21:52.699Z,13.13
2017-12-10T09:24:31.192Z,7.93
2017-12-10T09:27:12.008Z,9.05
2017-12-10T09:29:52.784Z,6.80
2017-12-10T09:32:28.752Z,8.57
2017-12-10T09:35:09.188Z,7.47
2017-12-10T09:37:51.821Z,8.82
2017-12-10T09:40:31.475Z,8.13
2017-12-10T09:43:12.384Z,6.95
2017-12-10T09:45:46.105Z,7.37
2017-12-10T09:48:25.806Z,13.30
2017-12-10T09:51:07.661Z,8.55
2017-12-10T09:53:52.447Z,8.82
2017-12-10T09:56:31.914Z,12.07
2017-12-10T09:59:12.716Z,12.65
2017-12-10T10:01:50.960Z,12.55
2017-12-10T10:04:31.388Z,12.75
2017-12-10T10:07:10.105Z,10.95
2017-12-10T10:09:51.143Z,13.10
2017-12-10T10:12:34.176Z,22.48
2017-12-10T10:15:17.895Z,18.08
2017-12-10T10:18:02.522Z,19.08
2017-12-10T10:20:44.765Z,19.42
2017-12-10T10:23:27.952Z,17.58
2017-12-10T10:26:07.434Z,13.32
2017-12-10T10:28:46.254Z,26.48
2017-12-10T10:31:29.529Z,24.08
2017-12-10T10:34:14.184Z,22.92
2017-12-10T10:36:54.062Z,24.27
2017-12-10T10:39:33.767Z,23.62
2017-12-10T10:42:12.099Z,21.87
2017-12-10T10:44:51.730Z,28.60
2017-12-10T10:47:31.286Z,26.23
2017-12-10T10:50:06.386Z,30.88
2017-12-10T10:52:40.474Z,30.10
2017-12-10T10:55:14.306Z,23.42
2017-12-10T10:57:54.651Z,27.58
2017-12-10T11:00:28.996Z,25.20
2017-12-10T11:03:10.033Z,19.20
2017-12-10T11:05:52.530Z,19.08
2017-12-10T11:08:38.376Z,16.65
2017-12-10T11:11:11.588Z,19.95
2017-12-10T11:13:53.985Z,16.23
2017-12-10T11:16:34.374Z,15.35
2017-12-10T11:19:13.822Z,14.52
2017-12-10T11:21:47.259Z,16.20
2017-12-10T11:24:31.148Z,13.65
2017-12-10T11:27:11.079Z,14.98
2017-12-10T11:29:53.177Z,11.95
2017-12-10T11:32:33.090Z,13.50
2017-12-10T11:35:12.488Z,12.90
2017-12-10T11:37:52.724Z,11.88
2017-12-10T11:40:32.844Z,11.60
2017-12-10T11:43:13.648Z,15.95
2017-12-10T11:45:52.900Z,12.70
2017-12-10T11:48:35.323Z,10.90
2017-12-10T11:51:14.859Z,12.60
2017-12-10T11:53:56.091Z,13.57
2017-12-10T11:56:37.409Z,21.83
2017-12-10T11:59:19.053Z,14.50
2017-12-10T12:01:56.866Z,10.73
2017-12-10T12:04:31.673Z,11.75
2017-12-10T12:07:13.409Z,14.40
2017-12-10T12:09:52.065Z,11.20
2017-12-10T12:12:31.298Z,13.82
2017-12-10T12:15:06.512Z,12.30
2017-12-10T12:17:48.364Z,10.35
2017-12-10T12:20:28.640Z,12.70
2017-12-10T12:23:08.510Z,10.93
2017-12-10T12:25:42.876Z,11.57
2017-12-10T12:28:17.930Z,13.80
2017-12-10T12:30:54.382Z,11.27
2017-12-10T12:33:35.199Z,11.38
2017-12-10T12:36:09.305Z,12.32
2017-12-10T12:38:46.063Z,11.98
2017-12-10T12:41:26.781Z,11.27
2017-12-10T12:44:01.482Z,12.32
2017-12-10T12:46:37.390Z,15.90
2017-12-10T12:49:11.866Z,13.55
2017-12-10T12:51:51.786Z,13.07
2017-12-10T12:54:28.171Z,13.25
2017-12-10T12:57:03.364Z,11.65
2017-12-10T12:59:46.040Z,17.48
2017-12-10T13:02:28.114Z,11.70
2017-12-10T13:05:12.176Z,9.52
2017-12-10T13:07:52.358Z,11.82
2017-12-10T13:10:31.252Z,8.43
2017-12-10T13:13:11.049Z,5.87
2017-12-10T13:15:51.518Z,8.15
2017-12-10T13:18:28.857Z,7.05
2017-12-10T13:21:12.736Z,10.65
2017-12-10T13:23:53.042Z,6.15
2017-12-10T13:26:32.882Z,7.12
2017-12-10T13:29:09.573Z,6.90
2017-12-10T13:31:53.522Z,7.50
2017-12-10T13:34:33.564Z,12.00
2017-12-10T13:37:14.736Z,7.15
2017-12-10T13:39:56.891Z,7.35
2017-12-10T13:42:36.196Z,7.47
2017-12-10T13:45:10.514Z,6.93
2017-12-10T13:47:45.080Z,6.15
2017-12-10T13:50:19.655Z,5.70
2017-12-10T13:53:01.846Z,7.22
2017-12-10T13:55:40.520Z,6.85
2017-12-10T13:58:17.728Z,6.75
2017-12-10T14:00:58.185Z,5.60
2017-12-10T14:03:37.701Z,5.60
2017-12-10T14:06:16.669Z,6.50
2017-12-10T14:08:56.282Z,6.53
2017-12-10T14:11:35.299Z,6.30
2017-12-10T14:14:14.723Z,6.95
2017-12-10T14:16:50.076Z,6.82
2017-12-10T14:19:26.268Z,11.98
2017-12-10T14:22:00.137Z,7.93
2017-12-10T14:24:42.027Z,11.38
2017-12-10T14:27:24.077Z,7.10
2017-12-10T14:30:04.423Z,6.82
2017-12-10T14:32:43.864Z,6.00
2017-12-10T14:35:23.170Z,9.30
2017-12-10T14:37:56.907Z,7.65
2017-12-10T14:40:36.015Z,13.10
2017-12-10T14:43:21.255Z,13.60
2017-12-10T14:45:56.375Z,17.67
2017-12-10T14:48:36.946Z,16.62
2017-12-10T14:51:18.244Z,24.15
2017-12-10T14:53:58.973Z,23.17
2017-12-10T14:56:37.326Z,20.37
2017-12-10T14:59:17.708Z,16.65
2017-12-10T15:01:56.627Z,19.20
2017-12-10T15:04:35.283Z,20.27
2017-12-10T15:07:13.731Z,20.65
2017-12-10T15:09:47.775Z,20.67
2017-12-10T15:12:19.722Z,29.17
2017-12-10T15:15:00.142Z,15.80
2017-12-10T15:17:39.527Z,21.48
2017-12-10T15:20:20.288Z,18.70
2017-12-10T15:23:03.728Z,30.65
2017-12-10T15:25:44.963Z,20.02
2017-12-10T15:28:25.236Z,30.00
2017-12-10T15:31:04.026Z,15.10
2017-12-10T15:33:49.466Z,24.35
2017-12-10T15:36:26.413Z,19.73
2017-12-10T15:39:06.461Z,15.80
2017-12-10T15:41:47.905Z,26.35
2017-12-10T15:44:27.418Z,23.62
2017-12-10T15:47:09.786Z,22.00
2017-12-10T15:49:49.307Z,21.95
2017-12-10T15:52:23.494Z,17.45
2017-12-10T15:54:58.167Z,51.45
2017-12-10T15:57:38.461Z,26.83
2017-12-10T16:00:18.505Z,28.45
2017-12-10T16:02:53.851Z,24.85
2017-12-10T16:05:33.009Z,28.33
2017-12-10T16:08:11.430Z,28.23
2017-12-10T16:10:47.027Z,20.62
2017-12-10T16:13:20.376Z,22.67
2017-12-10T16:15:58.652Z,30.92
2017-12-10T16:18:42.198Z,31.87
2017-12-10T16:21:25.358Z,34.45
2017-12-10T16:23:59.080Z,25.52
2017-12-10T16:26:37.435Z,41.10
2017-12-10T16:29:18.705Z,37.60
2017-12-10T16:32:00.107Z,32.20
2017-12-10T16:34:34.510Z,35.05
2017-12-10T16:37:18.112Z,30.60
2017-12-10T16:39:58.358Z,33.63
2017-12-10T16:42:36.102Z,28.73
2017-12-10T16:45:15.712Z,29.15
2017-12-10T16:47:54.764Z,25.73
2017-12-10T16:50:29.893Z,25.92
2017-12-10T16:53:04.664Z,30.40
2017-12-10T16:55:42.187Z,32.17
2017-12-10T16:58:17.140Z,21.60
2017-12-10T17:00:52.185Z,27.05
2017-12-10T17:03:30.380Z,19.65
2017-12-10T17:06:05.881Z,22.23
2017-12-10T17:08:40.163Z,38.08
2017-12-10T17:11:15.602Z,29.55
2017-12-10T17:13:50.755Z,24.75
2017-12-10T17:16:24.706Z,39.58
2017-12-10T17:18:58.572Z,37.05
2017-12-10T17:21:39.000Z,24.05
2017-12-10T17:24:18.946Z,19.15
2017-12-10T17:26:53.974Z,30.42
2017-12-10T17:29:28.110Z,22.42
2017-12-10T17:32:01.693Z,22.48
2017-12-10T17:34:41.738Z,26.17
2017-12-10T17:37:20.174Z,24.40
2017-12-10T17:39:54.255Z,22.92
2017-12-10T17:42:35.031Z,15.63
2017-12-10T17:45:09.288Z,20.55
2017-12-10T17:47:43.803Z,24.02
2017-12-10T17:50:19.328Z,33.13
2017-12-10T17:52:53.628Z,39.83
2017-12-10T17:55:33.263Z,19.48
2017-12-10T17:58:08.636Z,20.33
2017-12-10T18:00:43.262Z,27.52
2017-12-10T18:03:17.112Z,24.58
2017-12-10T18:05:52.983Z,25.33
2017-12-10T18:08:31.906Z,24.08
2017-12-10T18:11:10.717Z,19.12
2017-12-10T18:13:54.404Z,29.83
2017-12-10T18:16:37.596Z,28.08
2017-12-10T18:19:20.052Z,22.48
2017-12-10T18:21:54.529Z,27.65
2017-12-10T18:24:31.165Z,31.33
2017-12-10T18:27:11.025Z,19.80
2017-12-10T18:29:51.414Z,18.48
2017-12-10T18:32:30.976Z,15.55
2017-12-10T18:35:09.987Z,16.10
2017-12-10T18:37:49.846Z,26.55
2017-12-10T18:40:30.116Z,17.65
2017-12-10T18:43:09.564Z,23.25
2017-12-10T18:45:54.628Z,11.75
2017-12-10T18:48:29.502Z,19.92
2017-12-10T18:51:07.251Z,27.87
2017-12-10T18:53:46.890Z,25.67
2017-12-10T18:56:25.720Z,20.98
2017-12-10T18:58:59.131Z,26.77
2017-12-10T19:01:34.355Z,17.75
2017-12-10T19:04:13.340Z,12.32
2017-12-10T19:06:51.093Z,18.52
2017-12-10T19:09:34.226Z,15.73
2017-12-10T19:12:13.141Z,16.50
2017-12-10T19:14:53.239Z,16.42
2017-12-10T19:17:32.836Z,16.67
2017-12-10T19:20:13.625Z,18.40
2017-12-10T19:22:54.108Z,23.05
2017-12-10T19:25:35.480Z,12.52
2017-12-10T19:28:16.204Z,22.20
2017-12-10T19:30:50.042Z,23.85
2017-12-10T19:33:30.358Z,18.37
2017-12-10T19:36:10.414Z,20.55
2017-12-10T19:38:44.104Z,20.15
2017-12-10T19:41:21.291Z,22.52
2017-12-10T19:44:03.345Z,25.73
2017-12-10T19:46:44.872Z,17.70
2017-12-10T19:49:18.673Z,24.40
2017-12-10T19:51:59.435Z,12.15
2017-12-10T19:54:41.099Z,20.90
2017-12-10T19:57:22.496Z,21.30
2017-12-10T20:00:02.096Z,37.20
2017-12-10T20:02:42.681Z,17.55
2017-12-10T20:05:17.779Z,19.95
2017-12-10T20:07:57.778Z,16.92
2017-12-10T20:10:37.819Z,16.02
2017-12-10T20:13:18.473Z,12.37
2017-12-10T20:15:57.147Z,8.48
2017-12-10T20:18:36.572Z,6.62
2017-12-10T20:21:16.022Z,7.28
2017-12-10T20:23:50.316Z,3.83
2017-12-10T20:26:24.404Z,4.40
2017-12-10T20:28:58.938Z,8.23
2017-12-10T20:31:38.293Z,6.45
2017-12-10T20:34:18.370Z,9.00
2017-12-10T20:36:52.406Z,17.60
2017-12-10T20:39:28.084Z,14.50
2017-12-10T20:42:08.532Z,7.25
2017-12-10T20:44:48.527Z,11.88
2017-12-10T20:47:27.868Z,7.22
2017-12-10T20:50:09.208Z,3.78
2017-12-10T20:52:47.801Z,4.07
2017-12-10T20:55:21.747Z,4.47
2017-12-10T20:58:01.266Z,4.30
2017-12-10T21:00:43.373Z,5.62
2017-12-10T21:03:20.781Z,4.45
2017-12-10T21:06:02.770Z,4.55
2017-12-10T21:08:36.662Z,4.80
2017-12-10T21:11:11.006Z,4.22
2017-12-10T21:13:45.851Z,4.82
2017-12-10T21:16:27.499Z,5.00
2017-12-10T21:19:02.775Z,5.43
2017-12-10T21:21:38.871Z,4.95
2017-12-10T21:24:16.674Z,5.18
2017-12-10T21:26:56.985Z,6.65
2017-12-10T21:29:39.488Z,6.03
2017-12-10T21:32:18.559Z,7.10
2017-12-10T21:34:52.075Z,6.07
2017-12-10T21:37:31.345Z,5.78
2017-12-10T21:40:09.913Z,9.63
2017-12-10T21:42:44.435Z,7.20
2017-12-10T21:45:18.927Z,6.60
2017-12-10T21:47:54.448Z,6.87
2017-12-10T21:50:32.471Z,6.70
2017-12-10T21:53:11.090Z,7.25
2017-12-10T21:55:49.474Z,7.18
2017-12-10T21:58:28.698Z,7.00
2017-12-10T22:01:10.333Z,13.32
2017-12-10T22:03:55.211Z,9.60
2017-12-10T22:06:28.760Z,8.90
2017-12-10T22:09:10.004Z,9.30
2017-12-10T22:11:51.061Z,7.68
2017-12-10T22:14:25.310Z,8.38
2017-12-10T22:16:59.850Z,8.48
2017-12-10T22:19:39.834Z,8.93
2017-12-10T22:22:18.063Z,9.15
2017-12-10T22:24:56.984Z,9.80
2017-12-10T22:27:37.862Z,9.00
2017-12-10T22:30:21.969Z,10.68
2017-12-10T22:33:06.435Z,8.90
2017-12-10T22:35:39.426Z,9.38
2017-12-10T22:38:22.838Z,11.90
2017-12-10T22:41:06.071Z,9.82
2017-12-10T22:43:49.840Z,11.82
2017-12-10T22:46:23.456Z,10.30
2017-12-10T22:49:01.662Z,10.43
2017-12-10T22:51:40.844Z,9.40
2017-12-10T22:54:18.527Z,10.32
2017-12-10T22:56:59.771Z,15.98
2017-12-10T22:59:39.854Z,10.82
2017-12-10T23:02:20.878Z,11.10
2017-12-10T23:04:59.734Z,11.48
2017-12-10T23:07:39.731Z,12.98
2017-12-10T23:10:14.396Z,11.02
2017-12-10T23:13:01.281Z,14.10
2017-12-10T23:15:40.266Z,11.98
2017-12-10T23:18:23.207Z,12.52
2017-12-10T23:21:07.228Z,13.27
2017-12-10T23:23:46.290Z,13.77
2017-12-10T23:26:24.167Z,14.30
2017-12-10T23:29:06.224Z,13.25
2017-12-10T23:31:45.513Z,12.73
2017-12-10T23:34:29.086Z,16.98
2017-12-10T23:37:11.744Z,12.15
2017-12-10T23:39:49.840Z,14.48
2017-12-10T23:42:30.224Z,13.38
2017-12-10T23:45:09.310Z,15.10
2017-12-10T23:47:50.116Z,13.23
2017-12-10T23:50:20.579Z,12.40
2017-12-10T23:52:59.852Z,14.23
2017-12-10T23:55:39.958Z,12.43
2017-12-10T23:58:18.977Z,12.95
